Time;durP1;ratioP1;P1;durP2;ratioP2;P2;SDS_P1;SDS_P2;PMS_P1;PMS_P2;Temp;Humidity;BMP_temperature;BMP_pressure;BME280_temperature;BME280_humidity;BME280_pressure;Samples;Min_cycle;Max_cycle;Signal;HPM_P1;HPM_P2
2023/07/12 00:01:25;;;;;;;5.75;2.42;;;19.70;99.90;;;;;;5090007;28;20047;-87
2023/07/12 00:03:52;;;;;;;5.35;2.60;;;19.70;99.90;;;;;;5073382;28;20446;-87
2023/07/12 00:06:26;;;;;;;4.25;2.53;;;19.70;99.90;;;;;;5089714;28;20089;-87
2023/07/12 00:08:53;;;;;;;5.13;2.40;;;19.70;99.90;;;;;;5090421;28;20048;-86
2023/07/12 00:11:22;;;;;;;4.35;2.28;;;19.60;99.90;;;;;;5063337;28;20050;-86
2023/07/12 00:13:52;;;;;;;7.18;2.80;;;19.60;99.90;;;;;;5076948;28;20609;-87
2023/07/12 00:16:39;;;;;;;4.40;2.60;;;19.60;99.90;;;;;;5079522;28;20041;-87
2023/07/12 00:19:09;;;;;;;5.70;2.42;;;19.60;99.90;;;;;;5073665;28;20036;-87
2023/07/12 00:21:36;;;;;;;7.40;2.72;;;19.50;99.90;;;;;;5057014;28;20174;-87
2023/07/12 00:24:03;;;;;;;7.35;2.70;;;19.50;99.90;;;;;;5056815;28;20515;-87
2023/07/12 00:26:35;;;;;;;5.13;2.88;;;19.50;99.90;;;;;;5056135;28;20527;-87
2023/07/12 00:29:05;;;;;;;6.28;3.25;;;19.50;99.90;;;;;;5073134;28;20040;-87
2023/07/12 00:31:33;;;;;;;5.88;2.88;;;19.50;99.90;;;;;;5072313;28;20050;-87
2023/07/12 00:33:59;;;;;;;9.02;3.35;;;19.50;99.90;;;;;;5072815;28;20044;-87
2023/07/12 00:36:29;;;;;;;6.40;2.80;;;19.50;99.90;;;;;;5071793;28;20468;-86
2023/07/12 00:38:57;;;;;;;5.13;2.80;;;19.40;99.90;;;;;;5123318;28;20041;-87
2023/07/12 00:41:43;;;;;;;7.32;2.88;;;19.40;99.90;;;;;;5072714;28;20044;-86
2023/07/12 00:44:16;;;;;;;5.13;2.92;;;19.40;99.90;;;;;;5072877;28;20040;-87
2023/07/12 00:46:47;;;;;;;6.18;3.17;;;19.40;99.90;;;;;;5072784;28;20063;-87
2023/07/12 00:49:14;;;;;;;7.22;3.60;;;19.40;99.90;;;;;;5072207;28;20040;-87
2023/07/12 00:52:03;;;;;;;5.65;3.33;;;19.40;99.90;;;;;;5089905;28;20037;-87
2023/07/12 00:54:55;;;;;;;7.10;3.97;;;19.40;99.90;;;;;;5072460;28;20055;-87
2023/07/12 00:57:23;;;;;;;5.28;3.53;;;19.40;99.90;;;;;;5072174;28;20032;-86
2023/07/12 01:00:10;;;;;;;7.10;3.38;;;19.30;99.90;;;;;;5072382;28;20047;-87
2023/07/12 01:02:43;;;;;;;7.28;3.95;;;19.30;99.90;;;;;;5089132;28;20036;-87
2023/07/12 01:05:12;;;;;;;5.95;3.50;;;19.20;99.90;;;;;;5072322;28;20048;-86
2023/07/12 01:07:38;;;;;;;6.78;4.07;;;19.30;99.90;;;;;;5105013;28;20037;-87
2023/07/12 01:10:08;;;;;;;7.40;4.13;;;19.30;99.90;;;;;;5088873;28;20051;-86
2023/07/12 01:12:34;;;;;;;7.20;4.20;;;19.30;99.90;;;;;;5088698;28;20075;-88
2023/07/12 01:15:01;;;;;;;8.85;4.72;;;19.30;99.90;;;;;;5089198;28;20040;-87
2023/07/12 01:17:28;;;;;;;8.30;4.70;;;19.20;99.90;;;;;;5072353;28;20129;-87
2023/07/12 01:19:55;;;;;;;8.00;4.47;;;19.20;99.90;;;;;;5072474;28;20068;-87
2023/07/12 01:22:22;;;;;;;9.20;4.10;;;19.20;99.90;;;;;;5088583;28;20123;-87
2023/07/12 01:24:48;;;;;;;8.43;4.65;;;19.20;99.90;;;;;;5072145;28;20418;-86
2023/07/12 01:27:23;;;;;;;6.95;4.18;;;19.20;99.90;;;;;;5072005;28;20044;-87
2023/07/12 01:29:51;;;;;;;7.65;4.50;;;19.10;99.90;;;;;;5071982;28;20048;-87
2023/07/12 01:32:18;;;;;;;6.68;3.80;;;19.20;99.90;;;;;;5072181;28;20047;-87
2023/07/12 01:34:45;;;;;;;7.70;3.90;;;19.10;99.90;;;;;;5091851;28;20500;-87
2023/07/12 01:37:13;;;;;;;6.50;3.17;;;19.10;99.90;;;;;;5072881;28;20049;-87
2023/07/12 01:39:39;;;;;;;9.02;3.20;;;19.10;99.90;;;;;;5072444;28;20514;-87
2023/07/12 01:42:06;;;;;;;5.55;3.08;;;19.10;99.90;;;;;;5056661;28;20037;-87
2023/07/12 01:44:33;;;;;;;5.07;2.67;;;19.00;99.90;;;;;;5056288;28;20052;-87
2023/07/12 01:46:59;;;;;;;6.25;2.78;;;19.00;99.90;;;;;;5056552;28;20765;-87
2023/07/12 01:49:26;;;;;;;5.97;2.45;;;19.00;99.90;;;;;;5056177;28;20449;-87
2023/07/12 01:51:53;;;;;;;5.68;2.53;;;19.00;99.90;;;;;;5056465;28;20036;-87
2023/07/12 01:54:19;;;;;;;5.38;2.38;;;19.00;99.90;;;;;;5072594;28;20071;-87
2023/07/12 01:56:46;;;;;;;4.57;2.42;;;19.00;99.90;;;;;;5055327;28;20044;-86
2023/07/12 01:59:13;;;;;;;5.07;2.60;;;18.90;99.90;;;;;;5072409;28;20048;-87
2023/07/12 02:01:40;;;;;;;6.28;2.47;;;19.00;99.90;;;;;;5072115;28;20412;-87
2023/07/12 02:04:06;;;;;;;7.57;2.42;;;18.90;99.90;;;;;;5055975;28;20059;-87
2023/07/12 02:06:33;;;;;;;5.72;2.70;;;18.90;99.90;;;;;;5055399;28;20087;-87
2023/07/12 02:09:00;;;;;;;4.82;2.47;;;18.90;99.90;;;;;;5071901;28;20102;-86
2023/07/12 02:11:27;;;;;;;4.82;2.40;;;18.80;99.90;;;;;;5054904;28;20047;-86
2023/07/12 02:13:53;;;;;;;4.30;2.50;;;18.80;99.90;;;;;;5066580;28;20635;-87
2023/07/12 02:16:20;;;;;;;5.88;3.75;;;18.70;99.90;;;;;;5051966;28;20041;-86
2023/07/12 02:18:47;;;;;;;4.25;2.42;;;18.70;99.90;;;;;;5068156;28;20037;-87
2023/07/12 02:21:13;;;;;;;5.32;2.50;;;18.70;99.90;;;;;;5051990;28;20139;-86
2023/07/12 02:23:40;;;;;;;7.53;2.70;;;18.60;99.90;;;;;;5051543;28;20048;-87
2023/07/12 02:26:07;;;;;;;4.63;2.55;;;18.60;99.90;;;;;;5051926;28;20041;-86
2023/07/12 02:28:33;;;;;;;6.82;2.75;;;18.50;99.90;;;;;;5018752;28;20045;-86
2023/07/12 02:31:23;;;;;;;5.85;2.38;;;18.50;99.90;;;;;;5056170;28;20098;-86
2023/07/12 02:33:50;;;;;;;5.97;2.65;;;18.40;99.90;;;;;;5070733;28;20045;-86
2023/07/12 02:36:17;;;;;;;6.10;2.58;;;18.40;99.90;;;;;;5038216;28;20136;-86
2023/07/12 02:38:46;;;;;;;9.10;3.08;;;18.40;99.90;;;;;;5054036;28;20033;-86
2023/07/12 02:41:14;;;;;;;4.70;2.47;;;18.40;99.90;;;;;;5054752;28;20516;-86
2023/07/12 02:43:41;;;;;;;7.97;2.90;;;18.30;99.90;;;;;;5054297;28;20090;-87
2023/07/12 02:46:08;;;;;;;7.30;3.05;;;18.30;99.90;;;;;;5054129;28;20049;-86
2023/07/12 02:48:35;;;;;;;7.32;3.13;;;18.20;99.90;;;;;;5071050;28;20056;-86
2023/07/12 02:51:02;;;;;;;6.70;3.22;;;18.20;99.90;;;;;;5087822;28;20041;-86
2023/07/12 02:53:29;;;;;;;7.55;2.97;;;18.10;99.90;;;;;;5054423;28;20150;-87
2023/07/12 02:55:56;;;;;;;6.97;2.90;;;18.10;99.90;;;;;;5037816;28;20040;-87
2023/07/12 02:58:22;;;;;;;8.85;3.22;;;18.10;99.90;;;;;;5054198;28;20572;-87
2023/07/12 03:00:56;;;;;;;6.70;3.30;;;18.10;99.90;;;;;;5054476;28;20037;-87
2023/07/12 03:03:23;;;;;;;6.65;3.08;;;18.10;99.90;;;;;;5070780;28;20506;-86
2023/07/12 03:05:50;;;;;;;5.70;2.78;;;18.10;99.90;;;;;;5070590;28;20136;-86
2023/07/12 03:08:16;;;;;;;7.82;3.03;;;18.10;99.90;;;;;;5071143;28;20162;-87
2023/07/12 03:10:43;;;;;;;6.82;3.03;;;18.10;99.90;;;;;;5070552;28;20049;-86
2023/07/12 03:13:10;;;;;;;7.47;2.88;;;18.10;99.90;;;;;;5070238;28;20052;-86
2023/07/12 03:15:38;;;;;;;5.95;2.50;;;18.00;99.90;;;;;;5053862;28;20084;-86
2023/07/12 03:18:05;;;;;;;5.95;2.90;;;18.00;99.90;;;;;;5070469;28;20051;-86
2023/07/12 03:20:35;;;;;;;6.40;2.72;;;18.00;99.90;;;;;;5086338;28;20043;-86
2023/07/12 03:23:01;;;;;;;10.10;2.90;;;18.10;99.90;;;;;;5069321;28;20033;-85
2023/07/12 03:25:28;;;;;;;8.30;2.90;;;18.00;99.90;;;;;;5053276;28;20489;-86
2023/07/12 03:27:55;;;;;;;6.35;3.00;;;18.00;99.90;;;;;;5086071;28;20059;-86
2023/07/12 03:30:22;;;;;;;5.05;2.63;;;18.00;99.90;;;;;;5053382;28;20436;-86
2023/07/12 03:32:48;;;;;;;5.43;2.70;;;18.00;99.90;;;;;;5069876;28;20137;-86
2023/07/12 03:35:15;;;;;;;6.22;2.97;;;18.00;99.90;;;;;;5086522;28;20052;-87
2023/07/12 03:37:42;;;;;;;8.82;2.70;;;18.00;99.90;;;;;;5069682;28;20052;-86
2023/07/12 03:40:09;;;;;;;11.82;2.80;;;18.00;99.90;;;;;;5090485;28;20037;-86
2023/07/12 03:42:36;;;;;;;9.77;2.75;;;18.00;99.90;;;;;;5073917;28;20103;-87
2023/07/12 03:45:03;;;;;;;7.82;2.78;;;18.00;99.90;;;;;;5072948;28;20076;-87
2023/07/12 03:47:30;;;;;;;6.88;2.58;;;18.00;99.90;;;;;;5090301;28;20521;-86
2023/07/12 03:49:56;;;;;;;6.72;2.83;;;18.00;99.90;;;;;;5089718;28;20123;-86
2023/07/12 03:52:23;;;;;;;8.18;2.92;;;17.90;99.90;;;;;;5090096;28;20051;-86
2023/07/12 03:54:50;;;;;;;11.25;3.00;;;17.80;99.90;;;;;;5089499;28;20040;-87
2023/07/12 03:57:16;;;;;;;7.05;2.90;;;17.80;99.90;;;;;;5089204;28;20036;-86
2023/07/12 03:59:43;;;;;;;10.93;3.42;;;17.80;99.90;;;;;;5089650;28;20071;-86
2023/07/12 04:02:10;;;;;;;9.90;3.42;;;17.70;99.90;;;;;;5073232;28;20040;-86
2023/07/12 04:04:37;;;;;;;7.45;3.10;;;17.60;99.90;;;;;;5072411;28;20040;-86
2023/07/12 04:07:03;;;;;;;7.25;3.15;;;17.60;99.90;;;;;;5089107;28;20033;-86
2023/07/12 04:09:30;;;;;;;12.30;2.97;;;17.60;99.90;;;;;;5089384;28;20040;-86
2023/07/12 04:11:57;;;;;;;7.70;2.85;;;17.60;99.90;;;;;;5089115;28;20040;-86
2023/07/12 04:14:23;;;;;;;9.63;3.08;;;17.60;99.90;;;;;;5089264;28;20575;-86
2023/07/12 04:16:50;;;;;;;7.05;2.75;;;17.60;99.90;;;;;;5071893;28;20033;-86
2023/07/12 04:19:17;;;;;;;8.10;3.00;;;17.50;99.90;;;;;;5072808;28;20040;-86
2023/07/12 04:21:44;;;;;;;7.22;3.00;;;17.60;99.90;;;;;;5072010;28;20045;-86
2023/07/12 04:24:11;;;;;;;9.80;3.30;;;17.60;99.90;;;;;;5072844;28;20130;-86
2023/07/12 04:26:38;;;;;;;9.82;3.55;;;17.60;99.90;;;;;;5089020;28;20094;-86
2023/07/12 04:29:05;;;;;;;9.38;3.28;;;17.60;99.90;;;;;;5105362;28;20504;-86
2023/07/12 04:31:31;;;;;;;6.97;3.38;;;17.60;99.90;;;;;;5089406;28;20044;-86
2023/07/12 04:33:58;;;;;;;8.55;3.47;;;17.70;99.90;;;;;;5105356;28;20123;-86
2023/07/12 04:36:25;;;;;;;7.35;3.17;;;17.70;99.90;;;;;;5072189;28;20071;-86
2023/07/12 04:38:52;;;;;;;8.30;3.17;;;17.70;99.90;;;;;;5088988;28;20385;-86
2023/07/12 04:41:18;;;;;;;9.75;3.55;;;17.70;99.90;;;;;;5072351;28;20039;-86
2023/07/12 04:43:48;;;;;;;13.80;3.75;;;17.70;99.90;;;;;;5072172;28;20040;-86
2023/07/12 04:46:14;;;;;;;12.63;3.40;;;17.70;99.90;;;;;;5089197;28;20036;-87
2023/07/12 04:48:41;;;;;;;9.43;3.60;;;17.70;99.90;;;;;;5089153;28;20046;-87
2023/07/12 04:51:08;;;;;;;9.52;3.72;;;17.70;99.90;;;;;;5088258;28;20045;-86
2023/07/12 04:53:35;;;;;;;8.50;3.47;;;17.70;99.90;;;;;;5072076;28;20074;-86
2023/07/12 04:56:02;;;;;;;11.82;3.72;;;17.70;99.90;;;;;;5071898;28;20032;-86
2023/07/12 04:58:29;;;;;;;10.70;3.35;;;17.70;99.90;;;;;;5088754;28;20040;-86
2023/07/12 05:00:55;;;;;;;9.90;3.83;;;17.70;99.90;;;;;;5088482;28;20085;-86
2023/07/12 05:03:23;;;;;;;10.40;3.10;;;17.70;99.90;;;;;;5088494;28;20044;-86
2023/07/12 05:05:50;;;;;;;9.73;3.90;;;17.70;99.90;;;;;;5071747;28;20182;-86
2023/07/12 05:08:17;;;;;;;12.20;3.55;;;17.70;99.90;;;;;;5104653;28;20131;-86
2023/07/12 05:10:43;;;;;;;9.70;3.42;;;17.70;99.90;;;;;;5071832;28;20063;-86
2023/07/12 05:13:10;;;;;;;9.73;3.90;;;17.70;99.90;;;;;;5070737;28;20075;-86
2023/07/12 05:15:37;;;;;;;12.45;3.42;;;17.70;99.90;;;;;;5088209;28;20121;-86
2023/07/12 05:18:04;;;;;;;11.57;3.50;;;17.70;99.90;;;;;;5071661;28;20151;-86
2023/07/12 05:20:31;;;;;;;11.18;3.72;;;17.70;99.90;;;;;;5072895;28;20040;-89
2023/07/12 05:22:58;;;;;;;11.73;4.05;;;17.60;99.90;;;;;;5089869;28;20452;-88
2023/07/12 05:25:25;;;;;;;12.80;4.00;;;17.60;99.90;;;;;;5106212;28;20048;-88
2023/07/12 05:27:51;;;;;;;11.13;3.58;;;17.60;99.90;;;;;;5088962;28;20039;-88
2023/07/12 05:30:18;;;;;;;9.60;3.65;;;17.50;99.90;;;;;;5072637;28;20058;-87
2023/07/12 05:32:45;;;;;;;15.00;3.83;;;17.50;99.90;;;;;;5088870;28;20040;-87
2023/07/12 05:35:11;;;;;;;9.75;3.67;;;17.40;99.90;;;;;;5088684;28;20138;-87
2023/07/12 05:37:38;;;;;;;11.82;3.63;;;17.40;99.90;;;;;;5089060;28;20048;-87
2023/07/12 05:40:06;;;;;;;11.57;3.60;;;17.40;99.90;;;;;;5071563;28;20048;-86
2023/07/12 05:42:33;;;;;;;12.40;3.70;;;17.30;99.90;;;;;;5072425;28;20458;-87
2023/07/12 05:45:00;;;;;;;9.10;3.88;;;17.30;99.90;;;;;;5093233;28;20037;-87
2023/07/12 05:47:26;;;;;;;8.50;3.72;;;17.30;99.90;;;;;;5105863;28;20076;-88
2023/07/12 05:49:53;;;;;;;8.48;3.42;;;17.30;99.90;;;;;;5089222;28;20087;-88
2023/07/12 05:52:20;;;;;;;8.43;3.60;;;17.30;99.90;;;;;;5089320;28;20048;-86
2023/07/12 05:54:47;;;;;;;15.00;3.90;;;17.20;99.90;;;;;;5072436;28;20152;-87
2023/07/12 05:57:13;;;;;;;10.75;3.70;;;17.30;99.90;;;;;;5071625;28;20043;-87
2023/07/12 05:59:40;;;;;;;13.95;4.25;;;17.40;99.90;;;;;;5087837;28;20047;-85
2023/07/12 06:02:12;;;;;;;10.52;4.00;;;17.40;99.90;;;;;;5070508;28;20127;-86
2023/07/12 06:04:40;;;;;;;10.00;4.32;;;17.50;99.90;;;;;;5088323;28;20052;-86
2023/07/12 06:07:07;;;;;;;12.68;4.05;;;17.60;99.90;;;;;;5087123;28;20131;-86
2023/07/12 06:09:34;;;;;;;9.48;3.90;;;17.70;99.90;;;;;;5086842;28;20556;-85
2023/07/12 06:12:00;;;;;;;13.20;4.30;;;17.80;99.90;;;;;;5070077;28;20489;-86
2023/07/12 06:14:27;;;;;;;9.07;4.22;;;17.80;99.90;;;;;;5087631;28;20496;-87
2023/07/12 06:16:54;;;;;;;10.73;3.85;;;17.80;99.90;;;;;;5087718;28;20046;-86
2023/07/12 06:19:20;;;;;;;9.20;3.63;;;17.80;99.90;;;;;;5071477;28;20064;-86
2023/07/12 06:21:47;;;;;;;10.88;4.00;;;17.80;99.90;;;;;;5090987;28;20044;-86
2023/07/12 06:24:14;;;;;;;9.57;3.78;;;17.80;99.90;;;;;;5073938;28;20044;-86
2023/07/12 06:26:41;;;;;;;13.82;4.43;;;17.80;99.90;;;;;;5090919;28;20040;-86
2023/07/12 06:29:07;;;;;;;10.68;4.32;;;17.80;99.90;;;;;;5090321;28;20119;-85
2023/07/12 06:31:34;;;;;;;11.48;4.47;;;17.90;99.90;;;;;;5074201;28;20790;-86
2023/07/12 06:34:03;;;;;;;12.73;4.78;;;17.90;99.90;;;;;;5073450;28;20094;-85
2023/07/12 06:36:32;;;;;;;11.20;4.82;;;17.90;99.90;;;;;;5070222;28;20520;-86
2023/07/12 06:38:59;;;;;;;13.73;4.90;;;17.90;99.90;;;;;;5070524;28;20381;-86
2023/07/12 06:41:26;;;;;;;13.05;4.97;;;18.00;99.90;;;;;;5086419;28;20048;-85
2023/07/12 06:43:53;;;;;;;15.60;4.78;;;18.10;99.90;;;;;;5054139;28;20307;-86
2023/07/12 06:46:20;;;;;;;11.98;5.40;;;18.20;99.90;;;;;;5069939;28;20076;-85
2023/07/12 06:48:47;;;;;;;10.43;4.63;;;18.30;99.90;;;;;;5069839;28;20496;-85
2023/07/12 06:51:14;;;;;;;10.15;4.90;;;18.40;99.90;;;;;;5053058;28;20127;-86
2023/07/12 06:53:40;;;;;;;10.40;5.47;;;18.50;99.90;;;;;;5086658;28;20455;-85
2023/07/12 06:56:07;;;;;;;11.13;4.80;;;18.50;99.90;;;;;;5069187;28;20045;-85
2023/07/12 06:58:34;;;;;;;11.18;4.70;;;18.50;99.90;;;;;;5069010;28;20064;-85
2023/07/12 07:01:09;;;;;;;12.45;4.95;;;18.50;99.90;;;;;;5069486;28;20045;-86
2023/07/12 07:03:36;;;;;;;;;;;18.50;99.90;;;;;;5088469;28;20405;-83
2023/07/12 07:06:03;;;;;;;10.55;4.43;;;18.50;99.90;;;;;;5069112;28;19994;-84
2023/07/12 07:08:31;;;;;;;9.63;4.40;;;18.40;99.90;;;;;;5052304;28;20044;-85
2023/07/12 07:10:58;;;;;;;13.18;4.78;;;18.40;99.90;;;;;;5070797;28;20128;-82
2023/07/12 07:13:24;;;;;;;12.68;4.60;;;18.30;99.90;;;;;;5071549;28;20139;-83
2023/07/12 07:15:52;;;;;;;11.57;4.60;;;18.20;99.90;;;;;;5055742;28;20037;-82
2023/07/12 07:18:19;;;;;;;11.48;4.43;;;18.30;99.90;;;;;;5087954;28;20037;-84
2023/07/12 07:20:46;;;;;;;10.70;4.18;;;18.20;99.90;;;;;;5052107;28;20094;-83
2023/07/12 07:23:13;;;;;;;10.18;3.78;;;18.30;99.90;;;;;;5067994;28;20041;-85
2023/07/12 07:25:40;;;;;;;10.82;4.00;;;18.30;99.90;;;;;;5068805;28;20438;-83
2023/07/12 07:28:06;;;;;;;13.25;4.13;;;18.40;99.90;;;;;;5051487;28;20041;-84
2023/07/12 07:30:33;;;;;;;10.27;4.00;;;18.40;99.90;;;;;;5034614;28;20080;-84
2023/07/12 07:33:00;;;;;;;10.73;4.30;;;18.50;99.90;;;;;;5035272;28;20079;-83
2023/07/12 07:35:27;;;;;;;13.05;4.78;;;18.60;99.90;;;;;;5054200;28;20045;-83
2023/07/12 07:37:53;;;;;;;11.95;4.35;;;18.80;99.90;;;;;;5053215;28;20060;-83
2023/07/12 07:40:20;;;;;;;11.70;4.25;;;18.90;99.90;;;;;;5051259;28;20048;-83
2023/07/12 07:42:47;;;;;;;10.43;3.72;;;19.00;99.90;;;;;;5068074;28;20041;-84
2023/07/12 07:45:13;;;;;;;9.90;4.00;;;19.00;99.90;;;;;;5067583;28;20041;-83
2023/07/12 07:47:40;;;;;;;17.98;4.07;;;18.90;99.90;;;;;;5034989;28;20071;-83
2023/07/12 07:50:07;;;;;;;11.18;4.45;;;18.90;99.90;;;;;;5067851;28;20071;-83
2023/07/12 07:52:34;;;;;;;14.98;4.20;;;19.00;99.90;;;;;;5067645;28;20090;-83
2023/07/12 07:55:01;;;;;;;13.13;4.15;;;19.00;99.90;;;;;;5056071;28;20119;-84
2023/07/12 07:57:28;;;;;;;10.23;3.42;;;19.00;99.90;;;;;;5075719;28;20037;-83
2023/07/12 07:59:55;;;;;;;10.82;3.55;;;19.10;99.90;;;;;;5040655;28;20399;-84
2023/07/12 08:02:22;;;;;;;11.68;3.38;;;19.20;99.90;;;;;;5057177;28;20536;-84
2023/07/12 08:04:49;;;;;;;9.98;3.25;;;19.40;99.90;;;;;;5067301;28;20467;-83
2023/07/12 08:07:16;;;;;;;11.85;3.67;;;19.60;99.90;;;;;;5050300;28;20076;-83
2023/07/12 08:09:42;;;;;;;10.20;3.25;;;19.70;99.90;;;;;;5067504;28;20040;-83
2023/07/12 08:12:09;;;;;;;9.60;3.47;;;19.80;99.90;;;;;;5051133;28;20045;-84
2023/07/12 08:14:36;;;;;;;13.68;3.40;;;19.80;99.90;;;;;;5069518;28;20040;-83
2023/07/12 08:17:03;;;;;;;13.70;3.40;;;19.80;99.90;;;;;;5059169;28;20407;-84
2023/07/12 08:19:29;;;;;;;12.27;3.38;;;19.70;99.90;;;;;;5041990;28;20044;-83
2023/07/12 08:21:56;;;;;;;19.75;3.78;;;20.00;99.90;;;;;;5034753;28;20033;-83
2023/07/12 08:24:23;;;;;;;10.85;3.35;;;20.00;99.90;;;;;;5034543;28;20070;-83
2023/07/12 08:26:50;;;;;;;9.30;3.22;;;20.10;99.90;;;;;;5033695;28;20128;-84
2023/07/12 08:29:17;;;;;;;9.98;3.70;;;20.20;99.90;;;;;;5050835;28;20029;-83
2023/07/12 08:31:44;;;;;;;16.75;3.88;;;20.20;99.90;;;;;;5050594;28;20044;-84
2023/07/12 08:34:10;;;;;;;10.57;3.22;;;20.10;99.90;;;;;;5034216;28;20033;-83
2023/07/12 08:36:37;;;;;;;12.75;3.53;;;20.00;99.90;;;;;;5033307;28;20057;-84
2023/07/12 08:39:04;;;;;;;10.38;3.13;;;19.70;99.90;;;;;;5047189;28;20226;-84
2023/07/12 08:41:32;;;;;;;9.38;3.40;;;19.50;99.90;;;;;;5014612;28;20045;-83
2023/07/12 08:43:59;;;;;;;13.45;3.22;;;19.40;99.90;;;;;;5030658;28;20041;-83
2023/07/12 08:46:30;;;;;;;11.98;3.58;;;19.30;99.90;;;;;;5030098;28;20041;-83
2023/07/12 08:49:00;;;;;;;8.85;3.22;;;19.10;99.90;;;;;;5046841;28;20440;-83
2023/07/12 08:51:35;;;;;;;9.25;3.90;;;19.10;99.90;;;;;;5050051;28;20076;-83
2023/07/12 08:54:03;;;;;;;11.82;3.75;;;19.00;99.90;;;;;;5067025;28;20072;-83
2023/07/12 08:56:30;;;;;;;8.82;3.25;;;19.00;99.90;;;;;;5082808;28;20053;-84
2023/07/12 08:58:57;;;;;;;12.35;4.50;;;19.20;99.90;;;;;;5050116;28;20048;-83
2023/07/12 09:01:43;;;;;;;10.73;3.72;;;19.20;99.90;;;;;;5050368;28;20045;-87
2023/07/12 09:04:22;;;;;;;;;;;19.10;99.90;;;;;;5086994;28;20044;-89
2023/07/12 09:06:50;;;;;;;10.95;4.13;;;19.10;99.90;;;;;;5070605;28;19970;-89
2023/07/12 09:09:18;;;;;;;11.82;3.92;;;19.00;99.90;;;;;;5053851;28;20049;-90
2023/07/12 09:11:45;;;;;;;9.15;3.65;;;19.00;99.90;;;;;;5069521;28;20045;-88
2023/07/12 09:14:23;;;;;;;10.57;3.97;;;19.00;99.90;;;;;;5070414;28;20497;-89
2023/07/12 09:16:57;;;;;;;10.77;4.13;;;18.90;99.90;;;;;;5069918;28;20087;-89
2023/07/12 09:19:30;;;;;;;12.52;3.97;;;19.00;99.90;;;;;;5069760;28;20041;-87
2023/07/12 09:21:59;;;;;;;13.05;3.85;;;19.00;99.90;;;;;;5069813;28;20033;-89
2023/07/12 09:24:32;;;;;;;10.18;3.42;;;19.00;99.90;;;;;;5069098;28;20082;-88
2023/07/12 09:27:14;;;;;;;10.75;4.03;;;19.10;99.90;;;;;;5086234;28;20468;-87
2023/07/12 09:29:44;;;;;;;11.45;4.03;;;19.10;99.90;;;;;;5069264;28;20119;-90
2023/07/12 09:32:22;;;;;;;10.85;3.45;;;19.10;99.90;;;;;;5073189;28;20040;-90
2023/07/12 09:34:50;;;;;;;10.50;3.75;;;19.20;99.90;;;;;;5085454;28;20380;-83
2023/07/12 09:37:20;;;;;;;12.82;3.50;;;19.20;99.90;;;;;;5102912;28;20052;-83
2023/07/12 09:39:54;;;;;;;10.23;3.35;;;19.30;99.90;;;;;;5086131;28;20037;-83
2023/07/12 09:42:21;;;;;;;10.30;3.47;;;19.30;99.90;;;;;;5066241;28;20037;-83
2023/07/12 09:44:48;;;;;;;10.23;3.70;;;19.40;99.90;;;;;;5065412;28;20572;-83
2023/07/12 09:47:37;;;;;;;8.00;3.47;;;19.30;99.90;;;;;;5065831;28;20496;-83
2023/07/12 09:50:16;;;;;;;8.90;3.22;;;19.30;99.90;;;;;;5066351;28;20055;-83
2023/07/12 09:53:04;;;;;;;7.72;3.28;;;19.20;99.90;;;;;;5065841;28;20128;-83
2023/07/12 09:55:38;;;;;;;6.65;2.30;;;19.20;99.90;;;;;;5078819;28;20505;-82
2023/07/12 09:58:15;;;;;;;5.85;2.15;;;19.00;99.90;;;;;;5076226;28;20044;-83
2023/07/12 10:00:55;;;;;;;8.77;2.78;;;18.90;99.90;;;;;;5077279;28;20082;-87
2023/07/12 10:03:36;;;;;;;7.07;2.67;;;18.90;99.90;;;;;;5080656;28;20439;-86
2023/07/12 10:06:22;;;;;;;7.90;3.28;;;18.80;99.90;;;;;;5097435;28;20128;-87
2023/07/12 10:09:15;;;;;;;12.43;3.30;;;18.80;99.90;;;;;;5069222;28;20068;-84
2023/07/12 10:12:07;;;;;;;8.70;2.85;;;18.80;99.90;;;;;;5078081;28;20192;-84
2023/07/12 10:14:38;;;;;;;8.35;3.05;;;18.80;99.90;;;;;;5069590;28;20089;-84
2023/07/12 10:17:08;;;;;;;8.15;3.08;;;18.90;99.90;;;;;;5069680;28;20145;-85
2023/07/12 10:19:40;;;;;;;10.07;3.38;;;19.00;99.90;;;;;;5069706;28;20060;-83
2023/07/12 10:22:20;;;;;;;10.52;3.60;;;19.20;99.90;;;;;;5069227;28;20382;-84
2023/07/12 10:24:50;;;;;;;10.13;3.70;;;19.30;99.90;;;;;;5069172;28;20041;-84
2023/07/12 10:27:31;;;;;;;9.68;4.10;;;19.60;99.90;;;;;;5069852;28;20398;-84
2023/07/12 10:30:04;;;;;;;9.68;3.05;;;19.90;99.90;;;;;;5071583;28;20500;-84
2023/07/12 10:32:38;;;;;;;10.20;3.53;;;20.20;99.90;;;;;;5075119;28;20075;-84
2023/07/12 10:35:14;;;;;;;6.25;2.78;;;20.30;99.90;;;;;;5089940;28;20041;-85
2023/07/12 10:37:58;;;;;;;13.85;3.28;;;20.40;99.90;;;;;;5076984;28;20132;-84
2023/07/12 10:40:30;;;;;;;7.15;2.80;;;20.30;99.90;;;;;;5086402;28;20041;-83
2023/07/12 10:43:02;;;;;;;7.90;2.45;;;20.40;99.90;;;;;;5085200;28;20041;-84
2023/07/12 10:45:35;;;;;;;8.13;2.40;;;20.40;99.90;;;;;;5068987;28;20048;-83
2023/07/12 10:48:03;;;;;;;10.55;2.55;;;20.40;99.90;;;;;;5069532;28;20100;-85
2023/07/12 10:50:45;;;;;;;7.65;2.33;;;20.60;99.90;;;;;;5053123;28;20052;-84
2023/07/12 10:53:22;;;;;;;6.97;2.65;;;20.80;99.90;;;;;;5085400;28;20053;-85
2023/07/12 10:56:14;;;;;;;9.75;2.55;;;21.10;99.90;;;;;;5068883;28;20123;-84
2023/07/12 10:58:48;;;;;;;5.43;2.20;;;21.20;99.90;;;;;;5070883;28;20037;-84
2023/07/12 11:01:36;;;;;;;6.80;2.38;;;21.50;99.90;;;;;;5058280;28;20072;-83
2023/07/12 11:04:11;;;;;;;6.53;2.25;;;21.60;99.90;;;;;;5068796;28;20397;-84
2023/07/12 11:07:24;;;;;;;7.05;2.38;;;21.50;99.90;;;;;;5065072;28;20040;-84
2023/07/12 11:09:51;;;;;;;7.00;2.00;;;21.30;99.90;;;;;;5068244;28;20044;-84
2023/07/12 11:12:26;;;;;;;5.63;2.20;;;21.30;99.90;;;;;;5071931;28;20041;-84
2023/07/12 11:15:05;;;;;;;6.90;2.08;;;21.10;99.90;;;;;;5065583;28;20041;-83
2023/07/12 11:17:51;;;;;;;6.15;1.88;;;21.20;99.90;;;;;;5089529;28;20043;-83
2023/07/12 11:20:22;;;;;;;;;;;21.20;99.90;;;;;;5084602;28;20128;-83
2023/07/12 11:23:03;;;;;;;4.80;1.73;;;21.20;99.90;;;;;;5067466;28;19999;-84
2023/07/12 11:25:37;;;;;;;4.85;1.75;;;21.00;99.90;;;;;;5059380;28;20531;-83
2023/07/12 11:28:24;;;;;;;5.90;1.77;;;20.80;99.90;;;;;;5065006;28;20048;-84
2023/07/12 11:31:25;;;;;;;5.40;1.77;;;20.70;99.90;;;;;;5074961;28;20072;-83
2023/07/12 11:34:16;;;;;;;5.32;1.60;;;20.80;99.90;;;;;;5016270;28;20080;-83
2023/07/12 11:36:52;;;;;;;7.20;1.60;;;21.00;99.90;;;;;;5049272;28;20110;-84
2023/07/12 11:39:21;;;;;;;5.63;1.73;;;21.10;99.90;;;;;;5071322;28;20516;-83
2023/07/12 11:41:56;;;;;;;5.22;1.40;;;21.40;99.90;;;;;;5104419;28;20044;-84
2023/07/12 11:44:25;;;;;;;;;;;21.60;99.90;;;;;;5071691;28;20052;-83
2023/07/12 11:46:53;;;;;;;4.18;1.50;;;21.70;99.90;;;;;;5071128;28;19942;-85
2023/07/12 11:49:29;;;;;;;3.75;1.60;;;21.50;99.90;;;;;;5071219;28;20041;-83
2023/07/12 11:52:11;;;;;;;4.70;1.50;;;21.50;99.90;;;;;;5087309;28;20097;-83
2023/07/12 11:54:40;;;;;;;4.88;1.30;;;21.50;99.90;;;;;;5121417;28;20123;-85
2023/07/12 11:57:12;;;;;;;5.22;1.77;;;21.80;99.90;;;;;;5070683;28;20630;-85
2023/07/12 11:59:39;;;;;;;3.83;1.30;;;22.00;99.90;;;;;;5070066;28;20048;-83
2023/07/12 12:02:18;;;;;;;4.57;1.30;;;21.70;99.90;;;;;;5077242;28;20048;-84
2023/07/12 12:04:49;;;;;;;4.28;1.20;;;22.10;99.90;;;;;;5072789;28;20127;-85
2023/07/12 12:07:34;;;;;;;6.63;1.42;;;22.30;99.90;;;;;;5077485;28;20510;-84
2023/07/12 12:10:02;;;;;;;2.20;0.90;;;22.40;99.90;;;;;;5079996;28;20040;-84
2023/07/12 12:12:31;;;;;;;3.40;1.20;;;22.50;99.90;;;;;;5060657;28;20086;-83
2023/07/12 12:14:58;;;;;;;2.75;1.02;;;22.60;99.90;;;;;;5053383;28;20068;-84
2023/07/12 12:17:30;;;;;;;3.63;1.20;;;22.70;99.90;;;;;;5090843;28;20040;-84
2023/07/12 12:20:10;;;;;;;3.58;1.27;;;22.70;99.90;;;;;;5098397;28;20044;-83
2023/07/12 12:22:40;;;;;;;3.45;1.30;;;23.10;99.90;;;;;;5095773;28;20055;-83
2023/07/12 12:25:20;;;;;;;3.72;1.40;;;23.10;99.90;;;;;;5052075;28;20040;-83
2023/07/12 12:27:48;;;;;;;6.00;1.70;;;23.10;99.90;;;;;;5086725;28;20056;-83
2023/07/12 12:30:15;;;;;;;6.60;1.30;;;23.20;99.90;;;;;;5056737;28;20799;-84
2023/07/12 12:32:54;;;;;;;4.45;1.25;;;23.30;99.90;;;;;;5049015;28;20040;-84
2023/07/12 12:35:21;;;;;;;2.78;1.17;;;23.60;99.90;;;;;;5092961;28;20036;-83
2023/07/12 12:38:02;;;;;;;3.83;1.02;;;23.60;99.90;;;;;;5042152;28;20060;-85
2023/07/12 12:40:28;;;;;;;3.85;1.10;;;23.20;99.90;;;;;;5066483;28;20519;-84
2023/07/12 12:43:01;;;;;;;4.28;1.00;;;22.90;99.90;;;;;;5049539;28;20049;-84
2023/07/12 12:45:34;;;;;;;3.75;1.20;;;23.00;99.90;;;;;;5066516;28;20048;-85
2023/07/12 12:48:01;;;;;;;3.40;1.08;;;22.90;99.90;;;;;;5082136;28;20047;-85
2023/07/12 12:50:27;;;;;;;2.47;0.90;;;22.60;99.90;;;;;;5066142;28;20132;-84
2023/07/12 12:53:01;;;;;;;1.30;0.77;;;22.60;99.90;;;;;;5055085;28;20127;-84
2023/07/12 12:55:28;;;;;;;4.03;0.90;;;22.80;99.90;;;;;;5058155;28;20033;-85
2023/07/12 12:57:56;;;;;;;2.75;0.90;;;23.00;99.90;;;;;;5055685;28;20528;-86
2023/07/12 13:00:27;;;;;;;2.65;1.20;;;23.00;99.90;;;;;;5116225;28;20399;-84